Accueil
METAR-TAF:

METAR-TAF

Aéroports :

Jersey,

Aéroport de Jersey

latitude: 49-13N, longitude: 002-12W, altitude: 84 m

Observation

Le bulletin a été fait il y a 28 minutes, à 18:50 UTC
Vent 16 kt de nord
Température 5°C
Humidité 70%
Pression 995 hPa
Visibilité 10 km ou plus
Quelques nuages à une hauteur de 700 ft
Nuages épars à une hauteur de 3200 ft

METAR: EGJJ 111850Z 35016KT 9999 FEW007 SCT032 05/M00 Q0995

Heure: 19:18 (19:18 UTC)

Prévision

Le bulletin a été fait il y a 2 heures et 21 minutes, à 16:57 UTC
Prévision valable du 11 à 18 UTC au 12 à 03 UTC
Vent 25 kt de nord avec des rafales jusqu'à 35 kt
Visibilité 10 km ou plus
Nuages épars à une hauteur de 2000 ft
Evoluant progressivement
du 11 à 20 UTC au 11 à 22 UTC
Vent 15 kt de nord

TAF: EGJJ 111657Z 1118/1203 35025G35KT 9999 SCT020 BECMG 1120/1122 35015KT

Observations et prévisions météorologiques de plus de 4000 aéroports (messages METAR et TAF).

Les stations disponibles sont représentées par des disques jaunes et rouges sur la carte.

Passer la souris dessus pour voir le nom de la station.

Cliquer dessus pour voir les observations et prévisions météorologiques.

Pour changer de carte: cliquez sur les boutons verts avec une croix noire pour zoomer, sur le bouton vert avec un tiret pour effectuer un zoom arrière, ou sur les flèches vertes pour les cartes adjacentes.


METAR-TAF: